Stations météo

réclame
Mon MeteoGroup
Pian Rosa, Italie (16052): Température de l'air & dewpoint: 05.12.2017 23:00:00 - 11.12.2017 23:00:00 (CET)Pian Rosa, Italie (16052): Vitesse du vent: 05.12.2017 23:00:00 - 11.12.2017 23:00:00 (CET)Pian Rosa, Italie (16052): Direction du vent: 05.12.2017 23:00:00 - 11.12.2017 23:00:00 (CET)Pian Rosa, Italie (16052): visibility: 05.12.2017 23:00:00 - 11.12.2017 23:00:00 (CET)Pian Rosa, Italie (16052): Ensoleillement: 05.12.2017 23:00:00 - 11.12.2017 23:00:00 (CET)
Date & Time tt [°C] td [°C] ff [km/h] ff [knt] dd vv [km] sd [min]
11.12.2017 23:00:00 -7,8 -7,8 83 45 S 0,1 -
11.12.2017 22:00:00 -7,4 -7,4 55 30 S 0,1 -
11.12.2017 21:00:00 -7,0 -7,0 55 30 S 0,1 -
11.12.2017 20:00:00 -7,0 -7,0 74 40 S 0,1 -
11.12.2017 19:00:00 -7,0 -7,0 83 45 S 0,1 -
11.12.2017 18:00:00 -7,2 -7,2 83 45 SSW 0,1 -
11.12.2017 17:00:00 -7,2 -7,2 83 45 SSW 0,1 0
11.12.2017 16:00:00 -7,0 -7,0 83 45 S 0,1 0
11.12.2017 15:00:00 -6,8 -6,8 83 45 S 0,1 0
11.12.2017 14:00:00 -6,8 -6,8 74 40 S 0,1 0
11.12.2017 13:00:00 -7,0 -7,0 55 30 S 0,1 0
11.12.2017 12:00:00 -6,8 -6,8 55 30 S 0,1 0
11.12.2017 11:00:00 -6,4 -6,4 74 40 SSW 0,1 0
11.12.2017 10:00:00 -6,8 -6,8 55 30 SSW 0,1 0
11.12.2017 09:00:00 -7,0 -7,0 74 40 SSW 0,1 -
11.12.2017 08:00:00 -7,0 -7,0 55 30 SSW 0,1 -
11.12.2017 07:00:00 -6,6 -6,6 65 35 SSW 0,1 -
11.12.2017 06:00:00 -6,6 -6,6 74 40 SSW 0,1 -
11.12.2017 05:00:00 -6,8 -6,8 65 35 SSW 0,1 -
11.12.2017 04:00:00 -6,4 -6,4 65 35 SW 0,1 -
11.12.2017 03:00:00 -6,2 -6,2 65 35 SSW 0,1 -
11.12.2017 02:00:00 -6,6 -6,6 65 35 SSW 0,1 -
11.12.2017 01:00:00 -6,8 -6,8 65 35 SSW 0,1 -
11.12.2017 00:00:00 -6,8 -6,8 65 35 SSW 0,1 -
10.12.2017 23:00:00 -7,4 -7,4 65 35 SSW 0,1 -
10.12.2017 22:00:00 -7,4 -7,4 65 35 SSW 0,1 -
10.12.2017 21:00:00 -7,4 -7,4 65 35 SSW 0,1 -
10.12.2017 20:00:00 -7,4 -7,4 55 30 S 0,1 -
10.12.2017 19:00:00 -7,4 -7,4 55 30 SSW 0,1 -
10.12.2017 18:00:00 -7,6 -7,6 65 35 SSW 0,1 -
10.12.2017 17:00:00 -7,6 -7,6 55 30 SSW 0,1 0
10.12.2017 16:00:00 -7,6 -7,6 74 40 SSW 0,1 0
10.12.2017 15:00:00 -7,6 -7,6 65 35 S 0,1 0
10.12.2017 14:00:00 -7,8 -7,8 74 40 SSW 0,1 0
10.12.2017 13:00:00 -7,8 -7,8 55 30 SSW 0,1 0
10.12.2017 12:00:00 -8,2 -8,2 55 30 SSW 0,1 0
10.12.2017 11:00:00 -8,4 -8,4 0 0 N 0,1 0
10.12.2017 10:00:00 -8,8 -8,8 46 25 S 0,1 0
10.12.2017 09:00:00 -9,4 -9,4 46 25 S 0,1 0
10.12.2017 08:00:00 -9,8 -9,8 41 22 SSW 0,1 -
10.12.2017 07:00:00 -9,0 -9,5 28 15 SW 0,2 -
10.12.2017 06:00:00 -10,0 -11,5 4 2 N 0,8 -
10.12.2017 05:00:00 -11,8 -15,2 18 10 S 10 -
10.12.2017 04:00:00 -12,6 -18,2 28 15 SSW 10 -
10.12.2017 03:00:00 -12,4 -27,2 28 15 S 10 -
10.12.2017 02:00:00 -12,2 -30,0 18 10 SSW 10 -
10.12.2017 01:00:00 -12,2 -30,0 37 20 W 10 -
10.12.2017 00:00:00 -12,6 -30,0 28 15 W 10 -
09.12.2017 23:00:00 -12,8 -30,0 9 5 N 10 -
09.12.2017 22:00:00 -14,0 -30,0 37 20 NNE 10 -
09.12.2017 21:00:00 -15,2 -30,0 46 25 NNE 10 -
09.12.2017 20:00:00 -16,4 -26,9 55 30 NNE 12 -
09.12.2017 19:00:00 -17,4 -21,6 55 30 NNE 10 -
09.12.2017 18:00:00 -18,0 -20,6 18 10 NNE 12 -
09.12.2017 17:00:00 -20,2 -22,3 55 30 NNE 20 42
09.12.2017 16:00:00 21,0 18,0 55 30 NNE 10 0
09.12.2017 15:00:00 -21,0 -23,0 52 28 NE 0,8 0
09.12.2017 14:00:00 21,0 17,8 55 30 NNE 0,8 0
09.12.2017 13:00:00 -21,0 -23,1 74 40 NNE 0,5 0
09.12.2017 12:00:00 -21,0 -23,1 65 35 NNE 0,1 0
09.12.2017 11:00:00 -21,2 -23,2 65 35 NNE 0,1 0
09.12.2017 10:00:00 -21,2 -23,3 55 30 NNE 0,1 0
09.12.2017 09:00:00 -21,2 -23,2 55 30 NNE 0,1 0
09.12.2017 08:00:00 -21,2 -23,2 74 40 NNE 0,1 -
09.12.2017 07:00:00 -21,2 -23,2 65 35 NNE 0,1 -
09.12.2017 06:00:00 -21,0 -23,0 65 35 NNE 0,1 -
09.12.2017 05:00:00 -20,6 -22,6 52 28 N 0,1 -
09.12.2017 04:00:00 -20,0 -22,0 55 30 N 0,1 -
09.12.2017 03:00:00 -20,0 -22,3 55 30 N 0,1 -
09.12.2017 02:00:00 -19,8 -22,1 59 32 N 0,1 -
09.12.2017 01:00:00 -19,2 -21,5 61 33 N 0,1 -
09.12.2017 00:00:00 -18,8 -20,7 59 32 N 0,1 -
08.12.2017 23:00:00 -18,8 -20,8 37 20 N 0,2 -
08.12.2017 22:00:00 -18,6 -20,5 37 20 WNW 0,2 -
08.12.2017 21:00:00 -15,8 -19,2 28 15 NNW 0,2 -
08.12.2017 20:00:00 -14,8 -17,2 37 20 W 0,3 -
08.12.2017 19:00:00 -14,8 -19,0 37 20 WSW 0,8 -
08.12.2017 18:00:00 -14,2 -18,5 18 10 WSW 0,8 -
08.12.2017 17:00:00 -11,8 -17,8 28 15 WSW 0,8 0
08.12.2017 16:00:00 -10,2 -13,8 18 10 WSW 0,1 0
08.12.2017 15:00:00 -9,2 -12,8 18 10 W 0,8 0
08.12.2017 14:00:00 -8,6 -12,2 18 10 WSW 0,8 0
08.12.2017 13:00:00 -8,4 -11,9 28 15 S 0,8 0
08.12.2017 12:00:00 -7,8 -9,9 18 10 S 0,1 0
08.12.2017 11:00:00 -7,8 -10,6 22 12 S 0,8 0
08.12.2017 10:00:00 -7,8 -9,9 41 22 W 0,8 0
08.12.2017 09:00:00 -7,8 -8,6 11 6 WSW 0,5 0
08.12.2017 08:00:00 -8,0 -8,0 13 7 SSW 0,2 -
08.12.2017 07:00:00 -8,0 -8,0 28 15 SW 0,2 -
08.12.2017 06:00:00 -8,4 -8,4 28 15 SSW 0,2 -
08.12.2017 05:00:00 -8,6 -8,6 28 15 SSW 0,1 -
08.12.2017 04:00:00 -9,0 -9,0 28 15 SW 0,1 -
08.12.2017 03:00:00 -9,0 -9,0 28 15 SSW 0,1 -
08.12.2017 02:00:00 -9,4 -10,0 28 15 SSW 0,8 -
08.12.2017 01:00:00 -8,8 -13,5 18 10 SSW 0,8 -
08.12.2017 00:00:00 -9,4 -21,4 18 10 SSW 10 -
07.12.2017 23:00:00 -9,2 -24,4 18 10 SSW 10 -
07.12.2017 22:00:00 -9,0 -23,8 18 10 SSW 10 -
07.12.2017 21:00:00 -9,0 -25,0 18 10 SSW 10 -
07.12.2017 20:00:00 -8,8 -25,7 34 18 S 12 -
07.12.2017 19:00:00 -8,2 -26,2 18 10 SW 12 -
07.12.2017 18:00:00 -7,6 -25,2 4 2 N 12 18
07.12.2017 17:00:00 -6,6 -25,9 4 2 N 30 60
07.12.2017 16:00:00 -6,2 -27,3 4 2 N 30 60
07.12.2017 15:00:00 -6,0 -27,8 4 2 N 30 60
07.12.2017 14:00:00 -5,8 -27,6 4 2 N 30 60
07.12.2017 13:00:00 -6,6 -22,1 4 2 - 50 60
07.12.2017 12:00:00 -6,8 -22,3 4 2 - 50 60
07.12.2017 11:00:00 -7,0 -22,1 9 5 SSW 50 60
07.12.2017 10:00:00 -7,0 -22,9 9 5 SSW 50 6
07.12.2017 09:00:00 -8,0 -25,5 9 5 S 80 -
07.12.2017 08:00:00 -7,6 -26,2 8 4 NE 60 -
07.12.2017 07:00:00 -7,0 -26,2 0 0 N 10 -
07.12.2017 06:00:00 -8,0 -27,1 4 2 N 12 -
07.12.2017 05:00:00 -8,0 -28,2 18 10 NNE 12 -
07.12.2017 04:00:00 -7,2 -27,5 18 10 NNE 12 -
07.12.2017 03:00:00 -7,0 -23,7 15 8 NNE 12 -
07.12.2017 02:00:00 -7,8 -22,4 5 3 N 12 -
07.12.2017 01:00:00 -8,4 -21,8 5 3 N 12 -
07.12.2017 00:00:00 -7,8 -21,6 5 3 S 12 -
06.12.2017 23:00:00 -8,2 -20,6 9 5 WSW 12 -
06.12.2017 22:00:00 -8,0 -20,5 9 5 WSW 12 -
06.12.2017 21:00:00 -8,0 -20,5 9 5 WSW 12 -
06.12.2017 20:00:00 -8,0 -19,8 0 0 N 10 -
06.12.2017 19:00:00 -7,8 -19,3 9 5 NNE 10 -
06.12.2017 18:00:00 -7,2 -21,1 0 0 N 40 18
06.12.2017 17:00:00 -7,2 -18,2 0 0 N 80 60
06.12.2017 16:00:00 -6,8 -18,1 8 4 NNE 80 60
06.12.2017 15:00:00 -6,4 -18,4 0 0 N 80 60
06.12.2017 14:00:00 -6,0 -18,7 0 0 N 80 60
06.12.2017 13:00:00 -6,0 -18,0 9 5 WSW 30 60
06.12.2017 12:00:00 -6,4 -19,0 13 7 SSW 30 60
06.12.2017 11:00:00 -6,6 -19,5 11 6 S 30 60
06.12.2017 10:00:00 -7,8 -21,0 11 6 ESE 30 6
06.12.2017 09:00:00 -8,4 -20,5 18 10 ENE 30 0
06.12.2017 08:00:00 -8,2 -20,0 22 12 ENE 30 -
06.12.2017 07:00:00 -8,2 -20,6 18 10 NE 15 -
06.12.2017 06:00:00 -8,0 -20,5 9 5 NE 10 -
06.12.2017 05:00:00 -8,0 -20,5 9 5 NE 10 -
06.12.2017 04:00:00 -8,0 -19,2 18 10 NNE 10 -
06.12.2017 03:00:00 -7,8 -17,7 9 5 NE 10 -
06.12.2017 02:00:00 -8,2 -18,0 15 8 NNE 10 -
06.12.2017 01:00:00 -8,0 -18,7 15 8 NE 10 -
06.12.2017 00:00:00 -7,8 -18,5 9 5 NE 10 -
05.12.2017 23:00:00 -7,6 -20,4 9 5 NNE 10 -

tt = Température de l'air
td = dewpoint
ff = Vitesse du vent
dd = Direction du vent
vv = visibility
sd = Ensoleillement

stations d'obs. à proximité